createdAt,value
2023-05-07T00:00:22.766Z,9.03
2023-05-07T00:02:52.700Z,5.03
2023-05-07T00:05:22.384Z,7.20
2023-05-07T00:07:53.484Z,6.35
2023-05-07T00:10:23.289Z,6.33
2023-05-07T00:12:53.280Z,6.57
2023-05-07T00:15:23.209Z,6.03
2023-05-07T00:17:53.387Z,6.12
2023-05-07T00:20:22.978Z,4.97
2023-05-07T00:22:52.794Z,7.70
2023-05-07T00:25:22.591Z,6.10
2023-05-07T00:27:52.788Z,4.95
2023-05-07T00:30:22.662Z,5.30
2023-05-07T00:32:52.480Z,6.63
2023-05-07T00:35:22.319Z,4.60
2023-05-07T00:37:52.248Z,5.37
2023-05-07T00:40:22.107Z,6.07
2023-05-07T00:42:53.617Z,5.43
2023-05-07T00:45:23.320Z,7.73
2023-05-07T00:47:53.185Z,7.23
2023-05-07T00:50:23.072Z,7.80
2023-05-07T00:52:53.140Z,6.77
2023-05-07T00:55:23.953Z,8.63
2023-05-07T00:57:53.929Z,8.40
2023-05-07T01:00:23.589Z,6.13
2023-05-07T01:02:54.283Z,4.70
2023-05-07T01:05:27.088Z,5.47
2023-05-07T01:07:58.781Z,7.13
2023-05-07T01:10:31.519Z,6.92
2023-05-07T01:13:01.507Z,10.13
2023-05-07T01:15:31.555Z,6.70
2023-05-07T01:18:02.086Z,9.33
2023-05-07T01:20:33.365Z,5.58
2023-05-07T01:23:05.028Z,6.67
2023-05-07T01:25:35.022Z,6.37
2023-05-07T01:28:07.408Z,6.60
2023-05-07T01:30:39.938Z,6.07
2023-05-07T01:33:16.472Z,5.65
2023-05-07T01:35:49.268Z,7.55
2023-05-07T01:38:19.626Z,6.67
2023-05-07T01:40:49.956Z,7.97
2023-05-07T01:43:20.960Z,7.67
2023-05-07T01:45:51.539Z,6.60
2023-05-07T01:48:21.426Z,7.33
2023-05-07T01:50:52.217Z,8.13
2023-05-07T01:53:21.795Z,11.75
2023-05-07T01:55:51.395Z,9.35
2023-05-07T01:58:22.850Z,8.27
2023-05-07T02:00:52.819Z,11.87
2023-05-07T02:03:22.769Z,8.00
2023-05-07T02:05:54.303Z,9.73
2023-05-07T02:08:28.464Z,9.75
2023-05-07T02:10:58.893Z,10.77
2023-05-07T02:13:31.716Z,11.63
2023-05-07T02:16:01.524Z,14.10
2023-05-07T02:18:32.706Z,11.60
2023-05-07T02:21:02.778Z,12.37
2023-05-07T02:23:32.650Z,13.27
2023-05-07T02:26:02.520Z,14.10
2023-05-07T02:28:32.113Z,14.40
2023-05-07T02:31:05.467Z,13.93
2023-05-07T02:33:36.243Z,12.00
2023-05-07T02:36:11.701Z,14.63
2023-05-07T02:38:49.066Z,13.33
2023-05-07T02:41:18.878Z,14.17
2023-05-07T02:43:48.945Z,15.67
2023-05-07T02:46:18.888Z,15.27
2023-05-07T02:48:50.493Z,15.20
2023-05-07T02:51:26.170Z,15.13
2023-05-07T02:53:57.130Z,15.03
2023-05-07T02:56:28.839Z,17.83
2023-05-07T02:58:58.957Z,15.53
2023-05-07T03:01:30.827Z,15.40
2023-05-07T03:04:04.906Z,17.73
2023-05-07T03:06:34.798Z,15.73
2023-05-07T03:09:05.246Z,15.77
2023-05-07T03:11:36.504Z,18.17
2023-05-07T03:14:07.522Z,17.70
2023-05-07T03:16:37.481Z,14.70
2023-05-07T03:19:07.420Z,16.17
2023-05-07T03:21:37.279Z,14.13
2023-05-07T03:24:09.168Z,14.50
2023-05-07T03:26:39.058Z,14.90
2023-05-07T03:29:08.909Z,14.93
2023-05-07T03:31:38.753Z,13.73
2023-05-07T03:34:08.603Z,15.57
2023-05-07T03:36:38.739Z,16.25
2023-05-07T03:39:09.003Z,17.03
2023-05-07T03:41:40.556Z,18.57
2023-05-07T03:44:11.633Z,21.17
2023-05-07T03:46:41.761Z,21.07
2023-05-07T03:49:12.980Z,21.97
2023-05-07T03:51:42.861Z,18.67
2023-05-07T03:54:13.051Z,23.65
2023-05-07T03:56:44.296Z,26.40
2023-05-07T03:59:15.278Z,21.60
2023-05-07T04:01:46.352Z,22.87
2023-05-07T04:04:18.169Z,23.30
2023-05-07T04:06:48.033Z,23.57
2023-05-07T04:09:17.946Z,22.50
2023-05-07T04:11:48.580Z,20.50
2023-05-07T04:14:18.558Z,21.87
2023-05-07T04:16:48.518Z,22.20
2023-05-07T04:19:18.808Z,21.23
2023-05-07T04:21:49.895Z,23.83
2023-05-07T04:24:20.068Z,21.93
2023-05-07T04:26:49.968Z,24.20
2023-05-07T04:29:20.720Z,24.13
2023-05-07T04:31:50.840Z,24.67
2023-05-07T04:34:22.123Z,26.57
2023-05-07T04:36:52.104Z,27.03
2023-05-07T04:39:22.005Z,23.40
2023-05-07T04:41:52.255Z,25.57
2023-05-07T04:44:22.511Z,25.63
2023-05-07T04:46:52.340Z,23.73
2023-05-07T04:49:22.845Z,22.27
2023-05-07T04:51:53.281Z,23.70
2023-05-07T04:54:23.650Z,24.70
2023-05-07T04:56:53.549Z,25.80
2023-05-07T04:59:23.582Z,23.70
2023-05-07T05:01:54.047Z,23.98
2023-05-07T05:04:24.128Z,24.53
2023-05-07T05:06:53.994Z,22.70
2023-05-07T05:09:24.144Z,25.03
2023-05-07T05:11:54.404Z,26.25
2023-05-07T05:14:24.672Z,25.00
2023-05-07T05:16:55.327Z,26.07
2023-05-07T05:19:25.150Z,25.00
2023-05-07T05:21:55.043Z,23.47
2023-05-07T05:24:25.224Z,24.50
2023-05-07T05:26:58.092Z,25.30
2023-05-07T05:29:28.267Z,22.58
2023-05-07T05:31:58.148Z,24.20
2023-05-07T05:34:28.511Z,23.65
2023-05-07T05:36:59.447Z,24.18
2023-05-07T05:39:29.552Z,21.68
2023-05-07T05:41:59.429Z,22.07
2023-05-07T05:44:29.188Z,21.70
2023-05-07T05:47:00.188Z,21.47
2023-05-07T05:49:30.176Z,23.00
2023-05-07T05:52:00.295Z,25.50
2023-05-07T05:54:30.389Z,28.47
2023-05-07T05:57:00.358Z,22.77
2023-05-07T05:59:30.754Z,25.17
2023-05-07T06:02:00.736Z,23.83
2023-05-07T06:04:31.058Z,24.27
2023-05-07T06:07:00.949Z,22.15
2023-05-07T06:09:31.069Z,25.17
2023-05-07T06:12:01.105Z,24.03
2023-05-07T06:14:32.230Z,28.53
2023-05-07T06:17:02.107Z,22.93
2023-05-07T06:19:31.967Z,22.53
2023-05-07T06:22:02.799Z,23.77
2023-05-07T06:24:33.442Z,23.45
2023-05-07T06:27:03.382Z,22.73
2023-05-07T06:29:34.502Z,26.40
2023-05-07T06:32:11.273Z,26.00
2023-05-07T06:34:42.813Z,21.77
2023-05-07T06:37:12.894Z,22.00
2023-05-07T06:40:00.351Z,24.25
2023-05-07T06:42:30.442Z,20.83
2023-05-07T06:45:02.270Z,20.60
2023-05-07T06:47:33.226Z,24.40
2023-05-07T06:50:04.710Z,22.40
2023-05-07T06:52:36.367Z,21.87
2023-05-07T06:55:08.815Z,21.67
2023-05-07T06:57:39.487Z,20.05
2023-05-07T07:00:11.333Z,23.35
2023-05-07T07:02:45.648Z,21.23
2023-05-07T07:05:16.427Z,24.80
2023-05-07T07:07:48.263Z,19.73
2023-05-07T07:10:17.774Z,22.13
2023-05-07T07:12:47.865Z,22.00
2023-05-07T07:15:18.351Z,22.37
2023-05-07T07:17:48.726Z,19.52
2023-05-07T07:20:18.757Z,19.85
2023-05-07T07:22:49.184Z,21.60
2023-05-07T07:25:19.188Z,20.03
2023-05-07T07:27:50.917Z,19.60
2023-05-07T07:30:20.620Z,19.73
2023-05-07T07:32:51.348Z,21.57
2023-05-07T07:35:21.076Z,20.40
2023-05-07T07:37:51.350Z,18.27
2023-05-07T07:40:21.444Z,20.77
2023-05-07T07:42:51.645Z,20.33
2023-05-07T07:45:21.830Z,18.40
2023-05-07T07:47:52.848Z,18.12
2023-05-07T07:50:35.999Z,17.80
2023-05-07T07:52:54.838Z,18.17
2023-05-07T07:55:25.746Z,18.47
2023-05-07T07:57:55.813Z,19.53
2023-05-07T08:00:25.987Z,18.32
2023-05-07T08:02:56.905Z,19.37
2023-05-07T08:05:28.570Z,17.73
2023-05-07T08:07:59.420Z,19.65
2023-05-07T08:10:33.610Z,22.45
2023-05-07T08:13:06.980Z,18.42
2023-05-07T08:15:38.471Z,19.93
2023-05-07T08:18:09.114Z,19.77
2023-05-07T08:20:40.435Z,20.40
2023-05-07T08:23:12.184Z,17.37
2023-05-07T08:25:43.516Z,17.57
2023-05-07T08:28:14.005Z,19.40
2023-05-07T08:30:43.724Z,16.90
2023-05-07T08:33:13.946Z,19.62
2023-05-07T08:35:43.936Z,17.60
2023-05-07T08:38:14.524Z,16.73
2023-05-07T08:40:44.601Z,16.07
2023-05-07T08:43:20.321Z,14.80
2023-05-07T08:45:53.726Z,15.53
2023-05-07T08:48:26.474Z,18.85
2023-05-07T08:50:58.225Z,16.77
2023-05-07T08:53:28.693Z,15.00
2023-05-07T08:55:59.578Z,12.47
2023-05-07T08:58:31.283Z,12.70
2023-05-07T09:01:07.151Z,11.85
2023-05-07T09:03:38.462Z,12.63
2023-05-07T09:06:08.727Z,13.40
2023-05-07T09:08:38.844Z,12.30
2023-05-07T09:11:08.849Z,12.57
2023-05-07T09:13:40.093Z,12.28
2023-05-07T09:16:13.827Z,11.43
2023-05-07T09:18:47.429Z,11.43
2023-05-07T09:21:18.330Z,13.20
2023-05-07T09:23:53.178Z,10.67
2023-05-07T09:26:25.316Z,17.30
2023-05-07T09:28:55.190Z,12.27
2023-05-07T09:31:26.075Z,10.65
2023-05-07T09:33:57.139Z,12.00
2023-05-07T09:36:30.299Z,9.10
2023-05-07T09:39:02.308Z,10.93
2023-05-07T09:41:33.980Z,11.03
2023-05-07T09:44:09.943Z,10.90
2023-05-07T09:46:43.341Z,9.40
2023-05-07T09:49:19.785Z,11.37
2023-05-07T09:51:54.183Z,7.77
2023-05-07T09:54:25.709Z,8.75
2023-05-07T09:56:57.078Z,9.40
2023-05-07T09:59:30.473Z,8.50
2023-05-07T10:02:05.050Z,9.33
2023-05-07T10:04:37.117Z,6.67
2023-05-07T10:07:08.915Z,10.33
2023-05-07T10:09:40.285Z,13.43
2023-05-07T10:12:14.251Z,8.05
2023-05-07T10:14:45.088Z,13.17
2023-05-07T10:17:15.619Z,8.37
2023-05-07T10:19:47.504Z,6.77
2023-05-07T10:22:20.779Z,13.03
2023-05-07T10:24:53.201Z,8.53
2023-05-07T10:27:24.121Z,7.57
2023-05-07T10:30:04.360Z,11.37
2023-05-07T10:32:49.533Z,9.17
2023-05-07T10:37:51.307Z,6.15
2023-05-07T10:40:23.222Z,6.30
2023-05-07T10:42:57.603Z,4.37
2023-05-07T10:45:29.016Z,9.07
2023-05-07T10:48:28.966Z,5.47
2023-05-07T10:50:48.524Z,6.28
2023-05-07T10:53:25.309Z,10.30
2023-05-07T10:56:20.198Z,6.40
2023-05-07T10:58:51.689Z,8.10
2023-05-07T11:01:54.701Z,9.13
2023-05-07T11:04:29.217Z,6.25
2023-05-07T11:07:13.796Z,6.80
2023-05-07T11:09:58.796Z,9.20
2023-05-07T11:12:44.534Z,7.83
2023-05-07T11:15:43.798Z,8.05
2023-05-07T11:18:19.844Z,6.53
2023-05-07T11:20:55.714Z,9.60
2023-05-07T11:23:39.276Z,6.50
2023-05-07T11:26:13.669Z,6.65
2023-05-07T11:28:45.256Z,7.55
2023-05-07T11:31:15.873Z,7.27
2023-05-07T11:33:47.210Z,5.80
2023-05-07T11:36:21.752Z,8.75
2023-05-07T11:38:52.824Z,9.07
2023-05-07T11:41:23.690Z,7.53
2023-05-07T11:44:01.186Z,8.70
2023-05-07T11:46:31.222Z,7.53
2023-05-07T11:49:02.378Z,9.70
2023-05-07T11:51:32.856Z,8.30
2023-05-07T11:54:04.146Z,9.33
2023-05-07T11:56:36.207Z,8.53
2023-05-07T11:59:06.797Z,9.80
2023-05-07T12:01:38.443Z,11.20
2023-05-07T12:04:08.396Z,9.97
2023-05-07T12:06:39.715Z,9.77
2023-05-07T12:09:11.230Z,8.70
2023-05-07T12:11:41.034Z,12.13
2023-05-07T12:14:12.413Z,10.30
2023-05-07T12:16:43.043Z,10.18
2023-05-07T12:19:16.229Z,9.87
2023-05-07T12:21:46.186Z,9.27
2023-05-07T12:24:17.059Z,9.70
2023-05-07T12:26:46.864Z,10.43
2023-05-07T12:29:16.684Z,10.53
2023-05-07T12:31:46.626Z,8.53
2023-05-07T12:34:17.114Z,9.30
2023-05-07T12:36:48.454Z,9.43
2023-05-07T12:39:18.257Z,13.97
2023-05-07T12:41:59.527Z,8.87
2023-05-07T12:44:33.812Z,7.67
2023-05-07T12:47:06.396Z,8.73
2023-05-07T12:49:39.128Z,7.10
2023-05-07T12:52:09.150Z,8.77
2023-05-07T12:54:40.417Z,8.30
2023-05-07T12:57:11.546Z,10.73
2023-05-07T12:59:43.369Z,10.37
2023-05-07T13:02:13.232Z,8.13
2023-05-07T13:04:43.983Z,9.23
2023-05-07T13:07:13.779Z,9.97
2023-05-07T13:09:43.588Z,9.00
2023-05-07T13:12:13.705Z,11.43
2023-05-07T13:14:43.794Z,10.53
2023-05-07T13:17:14.134Z,9.63
2023-05-07T13:19:43.951Z,9.27
2023-05-07T13:22:14.176Z,9.80
2023-05-07T13:24:44.631Z,11.77
2023-05-07T13:27:14.419Z,13.47
2023-05-07T13:29:44.290Z,14.40
2023-05-07T13:32:14.155Z,16.87
2023-05-07T13:34:43.969Z,17.50
2023-05-07T13:37:14.087Z,15.18
2023-05-07T13:39:44.065Z,18.40
2023-05-07T13:42:13.965Z,18.37
2023-05-07T13:44:44.833Z,16.33
2023-05-07T13:47:14.639Z,18.27
2023-05-07T13:49:44.882Z,16.67
2023-05-07T13:52:14.690Z,17.93
2023-05-07T13:54:45.435Z,15.97
2023-05-07T13:57:14.965Z,15.30
2023-05-07T13:59:45.225Z,16.33
2023-05-07T14:02:14.816Z,15.20
2023-05-07T14:04:45.605Z,15.67
2023-05-07T14:07:15.999Z,13.13
2023-05-07T14:09:46.348Z,12.27
2023-05-07T14:12:16.501Z,14.27
2023-05-07T14:14:47.679Z,14.90
2023-05-07T14:17:18.709Z,14.80
2023-05-07T14:19:48.695Z,12.27
2023-05-07T14:22:18.517Z,12.40
2023-05-07T14:24:55.972Z,11.47
2023-05-07T14:27:19.822Z,3.33
2023-05-07T14:29:51.520Z,4.60
2023-05-07T14:32:21.618Z,2.70
2023-05-07T14:34:51.887Z,0.87
2023-05-07T14:37:21.670Z,1.47
2023-05-07T14:39:51.451Z,1.17
2023-05-07T14:42:21.177Z,2.70
2023-05-07T14:44:51.124Z,0.90
2023-05-07T14:47:20.986Z,1.83
2023-05-07T14:49:50.847Z,1.20
2023-05-07T14:52:22.419Z,1.44
2023-05-07T14:54:52.214Z,1.27
2023-05-07T14:57:21.986Z,2.30
2023-05-07T14:59:51.801Z,2.10
2023-05-07T15:02:21.938Z,1.70
2023-05-07T15:04:51.929Z,3.03
2023-05-07T15:07:21.897Z,1.17
2023-05-07T15:09:52.256Z,2.03
2023-05-07T15:12:23.991Z,1.58
2023-05-07T15:14:53.787Z,1.80
2023-05-07T15:17:24.020Z,1.87
2023-05-07T15:19:54.582Z,5.03
2023-05-07T15:22:24.431Z,1.50
2023-05-07T15:24:55.985Z,1.13
2023-05-07T15:27:25.512Z,2.75
2023-05-07T15:29:55.283Z,1.43
2023-05-07T15:32:26.231Z,1.47
2023-05-07T15:34:56.054Z,3.37
2023-05-07T15:37:25.850Z,1.40
2023-05-07T15:39:55.765Z,2.40
2023-05-07T15:42:25.391Z,3.95
2023-05-07T15:44:55.181Z,4.00
2023-05-07T15:47:24.985Z,3.47
2023-05-07T15:49:54.771Z,3.47
2023-05-07T15:52:25.024Z,2.08
2023-05-07T15:54:55.119Z,2.90
2023-05-07T15:57:26.215Z,3.87
2023-05-07T15:59:55.841Z,2.60
2023-05-07T16:02:25.910Z,4.53
2023-05-07T16:04:55.782Z,4.50
2023-05-07T16:07:26.132Z,3.05
2023-05-07T16:09:55.973Z,3.73
2023-05-07T16:12:25.792Z,3.80
2023-05-07T16:14:55.914Z,2.83
2023-05-07T16:17:26.339Z,4.60
2023-05-07T16:19:58.132Z,3.52
2023-05-07T16:22:29.272Z,1.60
2023-05-07T16:24:59.074Z,4.20
2023-05-07T16:27:28.876Z,2.23
2023-05-07T16:29:58.715Z,2.97
2023-05-07T16:32:29.995Z,3.52
2023-05-07T16:35:00.004Z,6.00
2023-05-07T16:37:29.881Z,1.20
2023-05-07T16:40:01.829Z,1.60
2023-05-07T16:42:31.723Z,5.60
2023-05-07T16:45:01.748Z,1.90
2023-05-07T16:47:32.279Z,6.97
2023-05-07T16:50:03.753Z,1.00
2023-05-07T16:52:33.758Z,2.30
2023-05-07T16:55:03.299Z,2.95
2023-05-07T16:57:33.370Z,1.80
2023-05-07T17:00:04.562Z,3.75
2023-05-07T17:02:35.665Z,2.45
2023-05-07T17:05:09.004Z,2.33
2023-05-07T17:07:38.920Z,2.00
2023-05-07T17:10:09.280Z,2.37
2023-05-07T17:12:39.185Z,6.50
2023-05-07T17:15:09.680Z,1.97
2023-05-07T17:17:41.643Z,4.85
2023-05-07T17:20:12.610Z,4.70
2023-05-07T17:22:42.347Z,4.45
2023-05-07T17:25:14.255Z,4.33
2023-05-07T17:27:43.909Z,5.13
2023-05-07T17:30:15.255Z,5.10
2023-05-07T17:32:45.261Z,4.83
2023-05-07T17:35:15.170Z,3.98
2023-05-07T17:37:46.584Z,7.53
2023-05-07T17:40:18.029Z,3.34
2023-05-07T17:42:47.969Z,6.13
2023-05-07T17:45:18.145Z,6.40
2023-05-07T17:47:48.019Z,4.97
2023-05-07T17:50:17.720Z,5.87
2023-05-07T17:52:47.538Z,5.80
2023-05-07T17:55:17.401Z,4.28
2023-05-07T17:57:47.228Z,4.47
2023-05-07T18:00:19.919Z,5.23
2023-05-07T18:02:51.348Z,5.57
2023-05-07T18:05:21.340Z,6.62
2023-05-07T18:07:51.187Z,6.60
2023-05-07T18:10:21.045Z,6.28
2023-05-07T18:12:50.927Z,5.13
2023-05-07T18:15:20.479Z,4.93
2023-05-07T18:17:50.307Z,5.37
2023-05-07T18:20:20.716Z,37.40
2023-05-07T18:22:51.374Z,17.77
2023-05-07T18:25:21.250Z,26.97
2023-05-07T18:27:51.042Z,8.67
2023-05-07T18:30:22.120Z,6.47
2023-05-07T18:32:51.981Z,7.30
2023-05-07T18:35:21.942Z,5.50
2023-05-07T18:37:51.869Z,8.63
2023-05-07T18:40:21.404Z,9.43
2023-05-07T18:42:51.201Z,6.07
2023-05-07T18:45:21.061Z,7.50
2023-05-07T18:47:50.882Z,6.10
2023-05-07T18:50:21.166Z,6.62
2023-05-07T18:52:50.966Z,14.90
2023-05-07T18:55:21.980Z,5.30
2023-05-07T18:57:53.501Z,6.80
2023-05-07T19:00:23.063Z,7.67
2023-05-07T19:02:52.877Z,6.30
2023-05-07T19:05:22.510Z,6.77
2023-05-07T19:07:52.286Z,7.20
2023-05-07T19:10:22.339Z,7.73
2023-05-07T19:12:53.969Z,6.73
2023-05-07T19:15:23.925Z,6.70
2023-05-07T19:17:54.406Z,8.33
2023-05-07T19:20:24.300Z,7.62
2023-05-07T19:22:53.824Z,7.00
2023-05-07T19:25:23.423Z,7.47
2023-05-07T19:27:53.228Z,7.10
2023-05-07T19:30:22.875Z,7.80
2023-05-07T19:32:52.773Z,9.77
2023-05-07T19:35:23.001Z,10.30
2023-05-07T19:37:52.884Z,11.90
2023-05-07T19:40:22.623Z,10.45
2023-05-07T19:42:52.445Z,9.03
2023-05-07T19:45:22.412Z,8.65
2023-05-07T19:47:52.367Z,9.50
2023-05-07T19:50:22.334Z,10.00
2023-05-07T19:52:51.832Z,10.10
2023-05-07T19:55:21.400Z,9.30
2023-05-07T19:57:51.211Z,10.37
2023-05-07T20:00:21.771Z,9.70
2023-05-07T20:02:51.745Z,9.90
2023-05-07T20:05:21.545Z,11.00
2023-05-07T20:07:51.352Z,9.97
2023-05-07T20:10:22.727Z,10.52
2023-05-07T20:12:52.695Z,9.93
2023-05-07T20:15:23.380Z,10.08
2023-05-07T20:17:53.199Z,9.55
2023-05-07T20:20:24.060Z,10.38
2023-05-07T20:22:54.411Z,9.87
2023-05-07T20:25:24.311Z,11.55
2023-05-07T20:27:54.846Z,11.25
2023-05-07T20:30:24.854Z,10.57
2023-05-07T20:32:54.753Z,10.30
2023-05-07T20:35:24.608Z,11.47
2023-05-07T20:37:54.508Z,11.97
2023-05-07T20:40:24.305Z,17.27
2023-05-07T20:42:54.409Z,12.13
2023-05-07T20:45:24.196Z,11.15
2023-05-07T20:47:54.523Z,12.27
2023-05-07T20:50:26.800Z,12.60
2023-05-07T20:52:56.695Z,11.47
2023-05-07T20:55:26.320Z,13.55
2023-05-07T20:57:56.238Z,14.00
2023-05-07T21:00:26.161Z,14.77
2023-05-07T21:02:56.170Z,13.10
2023-05-07T21:05:25.861Z,14.60
2023-05-07T21:07:56.566Z,15.50
2023-05-07T21:10:26.509Z,13.48
2023-05-07T21:12:56.479Z,15.17
2023-05-07T21:15:26.289Z,14.60
2023-05-07T21:17:56.418Z,13.83
2023-05-07T21:20:26.029Z,13.17
2023-05-07T21:22:55.869Z,13.60
2023-05-07T21:25:25.677Z,15.83
2023-05-07T21:27:55.564Z,14.60
2023-05-07T21:30:25.444Z,17.27
2023-05-07T21:32:55.734Z,15.03
2023-05-07T21:35:25.355Z,17.00
2023-05-07T21:37:55.240Z,16.90
2023-05-07T21:40:24.760Z,15.23
2023-05-07T21:42:54.840Z,16.63
2023-05-07T21:45:24.352Z,17.83
2023-05-07T21:47:53.899Z,16.00
2023-05-07T21:50:23.953Z,17.70
2023-05-07T21:52:53.445Z,16.30
2023-05-07T21:55:22.984Z,16.53
2023-05-07T21:58:04.129Z,16.00
2023-05-07T22:00:24.508Z,16.80
2023-05-07T22:02:54.375Z,16.00
2023-05-07T22:05:24.678Z,16.87
2023-05-07T22:07:54.527Z,15.97
2023-05-07T22:10:24.446Z,16.73
2023-05-07T22:12:54.261Z,16.73
2023-05-07T22:15:24.220Z,16.88
2023-05-07T22:17:54.079Z,17.50
2023-05-07T22:20:23.706Z,20.23
2023-05-07T22:22:56.080Z,19.10
2023-05-07T22:25:26.754Z,18.97
2023-05-07T22:27:56.559Z,19.30
2023-05-07T22:30:26.444Z,18.77
2023-05-07T22:32:56.116Z,19.70
2023-05-07T22:35:25.832Z,18.65
2023-05-07T22:37:55.634Z,19.80
2023-05-07T22:40:25.533Z,18.15
2023-05-07T22:42:55.338Z,19.47
2023-05-07T22:45:25.520Z,18.65
2023-05-07T22:47:55.101Z,19.10
2023-05-07T22:50:24.822Z,16.87
2023-05-07T22:52:54.656Z,21.27
2023-05-07T22:55:24.496Z,22.13
2023-05-07T22:57:54.362Z,18.70
2023-05-07T23:00:24.520Z,20.35
2023-05-07T23:02:54.562Z,19.70
2023-05-07T23:05:24.440Z,22.00
2023-05-07T23:07:54.153Z,20.55
2023-05-07T23:10:24.006Z,19.93
2023-05-07T23:12:53.857Z,18.77
2023-05-07T23:15:23.834Z,21.23
2023-05-07T23:17:53.715Z,21.33
2023-05-07T23:20:23.237Z,26.63
2023-05-07T23:22:53.029Z,21.40
2023-05-07T23:25:22.782Z,20.68
2023-05-07T23:27:52.648Z,22.37
2023-05-07T23:30:22.307Z,23.07
2023-05-07T23:32:52.193Z,23.23
2023-05-07T23:35:21.880Z,21.52
2023-05-07T23:37:51.482Z,22.25
2023-05-07T23:40:21.233Z,22.63
2023-05-07T23:42:51.118Z,25.03
2023-05-07T23:45:21.095Z,23.05
2023-05-07T23:47:51.269Z,22.83
2023-05-07T23:50:21.161Z,21.27
2023-05-07T23:52:51.005Z,22.50
2023-05-07T23:55:20.938Z,23.30
2023-05-07T23:57:50.512Z,21.60
